createdAt,value
2018-12-05T00:00:10.371Z,102077.20
2018-12-05T00:02:37.785Z,102075.92
2018-12-05T00:05:05.446Z,102081.06
2018-12-05T00:07:32.865Z,102074.63
2018-12-05T00:10:00.276Z,102084.50
2018-12-05T00:12:27.687Z,102081.08
2018-12-05T00:14:55.079Z,102084.92
2018-12-05T00:17:22.489Z,102081.92
2018-12-05T00:19:49.901Z,102076.78
2018-12-05T00:22:17.310Z,102077.20
2018-12-05T00:24:44.732Z,102074.63
2018-12-05T00:27:12.242Z,102072.03
2018-12-05T00:29:39.659Z,102074.63
2018-12-05T00:32:07.099Z,102079.81
2018-12-05T00:34:34.517Z,102078.50
2018-12-05T00:37:01.932Z,102078.92
2018-12-05T00:39:29.345Z,102084.95
2018-12-05T00:41:56.862Z,102082.81
2018-12-05T00:44:24.302Z,102086.69
2018-12-05T00:46:51.728Z,102090.54
2018-12-05T00:49:19.140Z,102088.39
2018-12-05T00:51:46.570Z,102088.84
2018-12-05T00:54:14.001Z,102089.67
2018-12-05T00:56:41.413Z,102090.11
2018-12-05T00:59:08.850Z,102089.25
2018-12-05T01:01:36.272Z,102095.27
2018-12-05T01:04:04.024Z,102095.30
2018-12-05T01:06:31.552Z,102097.01
2018-12-05T01:08:58.985Z,102098.30
2018-12-05T01:11:26.385Z,102108.62
2018-12-05T01:13:53.798Z,102109.47
2018-12-05T01:16:21.226Z,102111.20
2018-12-05T01:18:48.641Z,102118.06
2018-12-05T01:21:16.069Z,102113.78
2018-12-05T01:23:43.481Z,102123.22
2018-12-05T01:26:10.885Z,102122.78
2018-12-05T01:28:38.317Z,102120.63
2018-12-05T01:31:05.731Z,102128.37
2018-12-05T01:33:33.134Z,102130.11
2018-12-05T01:36:00.537Z,102125.81
2018-12-05T01:38:27.954Z,102134.80
2018-12-05T01:40:55.356Z,102136.52
2018-12-05T01:43:24.710Z,102130.86
2018-12-05T01:45:52.450Z,102128.73
2018-12-05T01:48:20.254Z,102138.17
2018-12-05T01:50:47.821Z,102139.45
2018-12-05T01:53:15.253Z,102139.88
2018-12-05T01:55:42.669Z,102137.27
2018-12-05T01:58:10.086Z,102139.39
2018-12-05T02:00:37.822Z,102141.56
2018-12-05T02:03:05.249Z,102138.52
2018-12-05T02:05:32.646Z,102134.23
2018-12-05T02:08:00.102Z,102135.05
2018-12-05T02:10:27.510Z,102136.30
2018-12-05T02:12:54.918Z,102134.17
2018-12-05T02:15:22.350Z,102141.87
2018-12-05T02:17:49.767Z,102146.56
2018-12-05T02:20:17.192Z,102140.14
2018-12-05T02:22:44.619Z,102136.27
2018-12-05T02:25:12.041Z,102138.00
2018-12-05T02:27:39.442Z,102134.55
2018-12-05T02:30:06.893Z,102135.84
2018-12-05T02:32:34.396Z,102137.57
2018-12-05T02:35:01.898Z,102135.88
2018-12-05T02:37:29.305Z,102129.03
2018-12-05T02:39:56.730Z,102130.30
2018-12-05T02:42:24.161Z,102135.47
2018-12-05T02:44:51.581Z,102134.63
2018-12-05T02:47:19.007Z,102139.38
2018-12-05T02:49:46.414Z,102134.22
2018-12-05T02:52:13.831Z,102132.53
2018-12-05T02:54:41.242Z,102128.64
2018-12-05T02:57:08.653Z,102130.80
2018-12-05T02:59:36.071Z,102131.67
2018-12-05T03:02:03.515Z,102133.38
2018-12-05T03:04:30.947Z,102132.50
2018-12-05T03:06:58.380Z,102135.54
2018-12-05T03:09:25.802Z,102134.25
2018-12-05T03:11:53.235Z,102135.94
2018-12-05T03:14:20.734Z,102129.95
2018-12-05T03:16:48.140Z,102134.69
2018-12-05T03:19:15.546Z,102132.52
2018-12-05T03:21:42.998Z,102129.50
2018-12-05T03:24:10.493Z,102122.19
2018-12-05T03:26:37.927Z,102131.19
2018-12-05T03:29:06.795Z,102135.06
2018-12-05T03:31:34.487Z,102133.74
2018-12-05T03:34:01.919Z,102132.45
2018-12-05T03:36:29.346Z,102138.87
2018-12-05T03:38:56.797Z,102142.27
2018-12-05T03:41:24.301Z,102142.17
2018-12-05T03:43:51.938Z,102145.63
2018-12-05T03:46:19.368Z,102146.05
2018-12-05T03:48:46.904Z,102146.41
2018-12-05T03:51:14.422Z,102154.97
2018-12-05T03:53:42.863Z,102157.50
2018-12-05T03:56:10.274Z,102158.76
2018-12-05T03:58:37.695Z,102156.59
2018-12-05T04:01:05.101Z,102162.61
2018-12-05T04:03:32.513Z,102158.64
2018-12-05T04:05:59.928Z,102155.22
2018-12-05T04:08:27.455Z,102161.65
2018-12-05T04:10:54.872Z,102159.05
2018-12-05T04:13:22.302Z,102161.21
2018-12-05T04:15:49.731Z,102151.79
2018-12-05T04:18:17.965Z,102156.06
2018-12-05T04:20:45.410Z,102161.22
2018-12-05T04:23:12.819Z,102159.47
2018-12-05T04:25:40.334Z,102159.88
2018-12-05T04:28:07.797Z,102156.89
2018-12-05T04:30:35.206Z,102160.69
2018-12-05T04:33:02.659Z,102162.78
2018-12-05T04:35:30.094Z,102157.63
2018-12-05T04:37:57.540Z,102154.62
2018-12-05T04:40:24.949Z,102159.77
2018-12-05T04:42:52.382Z,102157.65
2018-12-05T04:45:19.805Z,102153.34
2018-12-05T04:47:47.206Z,102148.14
2018-12-05T04:50:14.653Z,102149.86
2018-12-05T04:52:42.082Z,102150.71
2018-12-05T04:55:09.518Z,102147.66
2018-12-05T04:57:36.923Z,102154.93
2018-12-05T05:00:05.583Z,102157.12
2018-12-05T05:02:32.997Z,102160.09
2018-12-05T05:05:00.455Z,102161.82
2018-12-05T05:07:27.859Z,102171.64
2018-12-05T05:09:55.283Z,102163.95
2018-12-05T05:12:22.705Z,102169.98
2018-12-05T05:14:50.146Z,102170.83
2018-12-05T05:17:17.551Z,102170.41
2018-12-05T05:19:44.987Z,102170.83
2018-12-05T05:22:12.391Z,102180.21
2018-12-05T05:24:39.808Z,102184.47
2018-12-05T05:27:07.237Z,102184.05
2018-12-05T05:29:34.650Z,102190.06
2018-12-05T05:32:02.494Z,102192.22
2018-12-05T05:34:29.906Z,102188.75
2018-12-05T05:36:57.326Z,102187.86
2018-12-05T05:39:24.765Z,102193.03
2018-12-05T05:41:52.185Z,102197.77
2018-12-05T05:44:19.629Z,102200.78
2018-12-05T05:46:47.096Z,102205.96
2018-12-05T05:49:14.521Z,102203.35
2018-12-05T05:51:41.922Z,102199.49
2018-12-05T05:54:09.341Z,102196.41
2018-12-05T05:56:36.758Z,102194.70
2018-12-05T05:59:04.219Z,102193.38
2018-12-05T06:01:31.671Z,102194.20
2018-12-05T06:03:59.096Z,102195.48
2018-12-05T06:06:26.503Z,102193.30
2018-12-05T06:08:53.930Z,102203.58
2018-12-05T06:11:21.356Z,102199.24
2018-12-05T06:13:48.778Z,102205.63
2018-12-05T06:16:16.185Z,102207.36
2018-12-05T06:18:43.598Z,102206.48
2018-12-05T06:21:11.010Z,102203.92
2018-12-05T06:23:38.450Z,102204.75
2018-12-05T06:26:05.870Z,102206.94
2018-12-05T06:28:33.278Z,102197.94
2018-12-05T06:31:00.738Z,102187.28
2018-12-05T06:33:28.174Z,102191.10
2018-12-05T06:35:55.624Z,102187.66
2018-12-05T06:38:23.057Z,102188.09
2018-12-05T06:40:50.482Z,102195.30
2018-12-05T06:43:17.897Z,102189.72
2018-12-05T06:45:45.403Z,102191.84
2018-12-05T06:48:13.125Z,102196.07
2018-12-05T06:50:40.542Z,102196.09
2018-12-05T06:53:07.954Z,102201.27
2018-12-05T06:55:39.056Z,102206.90
2018-12-05T06:58:04.802Z,102209.05
2018-12-05T07:00:32.248Z,102213.41
2018-12-05T07:02:59.666Z,102218.16
2018-12-05T07:05:27.121Z,102215.42
2018-12-05T07:07:54.583Z,102216.78
2018-12-05T07:10:21.983Z,102217.65
2018-12-05T07:12:49.412Z,102220.56
2018-12-05T07:15:16.823Z,102224.80
2018-12-05T07:17:44.249Z,102231.21
2018-12-05T07:20:11.670Z,102226.21
2018-12-05T07:22:39.081Z,102232.58
2018-12-05T07:25:06.523Z,102229.14
2018-12-05T07:27:34.054Z,102224.42
2018-12-05T07:30:01.514Z,102225.75
2018-12-05T07:32:28.926Z,102223.17
2018-12-05T07:34:56.394Z,102223.55
2018-12-05T07:37:23.830Z,102219.31
2018-12-05T07:39:51.234Z,102221.05
2018-12-05T07:42:18.662Z,102219.78
2018-12-05T07:44:46.105Z,102220.20
2018-12-05T07:47:13.513Z,102215.02
2018-12-05T07:49:40.922Z,102223.17
2018-12-05T07:52:08.354Z,102221.91
2018-12-05T07:54:35.806Z,102218.95
2018-12-05T07:57:03.302Z,102221.98
2018-12-05T07:59:30.718Z,102218.16
2018-12-05T08:01:58.137Z,102224.20
2018-12-05T08:04:25.561Z,102229.38
2018-12-05T08:06:52.978Z,102230.68
2018-12-05T08:09:20.417Z,102227.26
2018-12-05T08:11:47.838Z,102230.73
2018-12-05T08:14:15.268Z,102235.91
2018-12-05T08:16:42.717Z,102232.10
2018-12-05T08:19:10.142Z,102232.55
2018-12-05T08:21:37.570Z,102237.34
2018-12-05T08:24:05.094Z,102244.63
2018-12-05T08:26:32.542Z,102245.47
2018-12-05T08:28:59.993Z,102253.30
2018-12-05T08:31:27.404Z,102252.03
2018-12-05T08:33:54.833Z,102251.72
2018-12-05T08:36:22.252Z,102251.28
2018-12-05T08:38:49.699Z,102245.75
2018-12-05T08:41:17.109Z,102246.16
2018-12-05T08:43:44.665Z,102246.20
2018-12-05T08:46:12.182Z,102238.54
2018-12-05T08:48:39.605Z,102247.11
2018-12-05T08:51:07.064Z,102250.63
2018-12-05T08:53:34.470Z,102246.84
2018-12-05T08:56:01.894Z,102245.16
2018-12-05T08:58:29.330Z,102247.34
2018-12-05T09:00:56.740Z,102247.83
2018-12-05T09:03:24.157Z,102246.53
2018-12-05T09:05:51.603Z,102244.39
2018-12-05T09:08:19.049Z,102250.48
2018-12-05T09:10:46.453Z,102253.53
2018-12-05T09:13:13.902Z,102254.41
2018-12-05T09:15:41.346Z,102251.45
2018-12-05T09:18:08.777Z,102248.47
2018-12-05T09:20:36.193Z,102252.41
2018-12-05T09:23:03.830Z,102251.97
2018-12-05T09:25:31.260Z,102241.28
2018-12-05T09:27:58.925Z,102243.47
2018-12-05T09:30:26.367Z,102243.48
2018-12-05T09:32:53.777Z,102242.22
2018-12-05T09:35:21.191Z,102235.34
2018-12-05T09:37:48.637Z,102244.00
2018-12-05T09:40:16.156Z,102242.29
2018-12-05T09:42:43.558Z,102249.20
2018-12-05T09:45:12.017Z,102246.21
2018-12-05T09:47:39.453Z,102238.06
2018-12-05T09:50:06.878Z,102241.08
2018-12-05T09:52:34.411Z,102238.55
2018-12-05T09:55:01.842Z,102240.25
2018-12-05T09:57:29.270Z,102242.84
2018-12-05T09:59:56.690Z,102241.13
2018-12-05T10:02:24.104Z,102236.83
2018-12-05T10:04:51.534Z,102239.40
2018-12-05T10:07:18.945Z,102231.70
2018-12-05T10:09:46.373Z,102228.27
2018-12-05T10:12:13.805Z,102230.00
2018-12-05T10:14:41.243Z,102230.00
2018-12-05T10:17:08.657Z,102223.97
2018-12-05T10:19:36.099Z,102217.09
2018-12-05T10:22:03.529Z,102213.66
2018-12-05T10:24:31.024Z,102214.51
2018-12-05T10:26:58.469Z,102214.48
2018-12-05T10:29:25.880Z,102214.49
2018-12-05T10:31:53.295Z,102205.89
2018-12-05T10:34:20.713Z,102205.05
2018-12-05T10:36:48.247Z,102205.47
2018-12-05T10:39:15.690Z,102197.31
2018-12-05T10:41:43.110Z,102199.45
2018-12-05T10:44:10.557Z,102198.16
2018-12-05T10:46:37.973Z,102199.90
2018-12-05T10:49:05.426Z,102198.16
2018-12-05T10:51:32.846Z,102199.03
2018-12-05T10:54:00.249Z,102196.02
2018-12-05T10:56:27.661Z,102190.42
2018-12-05T10:58:55.111Z,102193.88
2018-12-05T11:01:28.094Z,102190.84
2018-12-05T11:03:55.519Z,102185.23
2018-12-05T11:06:28.525Z,102180.94
2018-12-05T11:09:01.557Z,102174.45
2018-12-05T11:11:34.626Z,102176.17
2018-12-05T11:17:11.923Z,102172.30
2018-12-05T11:19:45.027Z,102167.55
2018-12-05T11:22:14.374Z,102167.95
2018-12-05T11:24:42.398Z,102169.67
2018-12-05T11:27:09.833Z,102171.82
2018-12-05T11:29:37.261Z,102168.81
2018-12-05T11:32:04.718Z,102167.95
2018-12-05T11:34:32.149Z,102165.31
2018-12-05T11:36:59.554Z,102161.86
2018-12-05T11:39:26.973Z,102152.80
2018-12-05T11:41:54.392Z,102154.50
2018-12-05T11:44:21.807Z,102151.92
2018-12-05T11:46:49.218Z,102141.09
2018-12-05T11:49:16.642Z,102145.45
2018-12-05T11:51:44.057Z,102138.93
2018-12-05T11:54:11.474Z,102142.79
2018-12-05T11:56:38.910Z,102141.52
2018-12-05T11:59:06.382Z,102135.03
2018-12-05T12:01:33.880Z,102137.19
2018-12-05T12:04:01.322Z,102135.02
2018-12-05T12:06:28.798Z,102135.83
2018-12-05T12:08:56.223Z,102134.54
2018-12-05T12:11:23.682Z,102134.96
2018-12-05T12:13:51.102Z,102128.00
2018-12-05T12:16:18.957Z,102118.98
2018-12-05T12:18:46.390Z,102125.01
2018-12-05T12:21:13.797Z,102122.42
2018-12-05T12:23:41.226Z,102124.14
2018-12-05T12:26:08.654Z,102117.29
2018-12-05T12:28:36.090Z,102109.13
2018-12-05T12:31:03.511Z,102110.86
2018-12-05T12:33:30.957Z,102106.56
2018-12-05T12:35:58.380Z,102092.86
2018-12-05T12:38:25.792Z,102100.61
2018-12-05T12:40:53.230Z,102092.00
2018-12-05T12:43:20.642Z,102092.43
2018-12-05T12:45:48.057Z,102089.88
2018-12-05T12:48:15.481Z,102090.73
2018-12-05T12:50:42.889Z,102089.42
2018-12-05T12:53:10.318Z,102085.55
2018-12-05T12:55:37.789Z,102084.70
2018-12-05T12:58:05.227Z,102091.16
2018-12-05T13:00:32.801Z,102088.56
2018-12-05T13:03:00.239Z,102089.85
2018-12-05T13:05:27.655Z,102082.95
2018-12-05T13:07:55.067Z,102082.52
2018-12-05T13:10:22.489Z,102081.64
2018-12-05T13:12:51.885Z,102083.82
2018-12-05T13:15:19.340Z,102080.72
2018-12-05T13:17:46.817Z,102072.91
2018-12-05T13:20:14.295Z,102070.25
2018-12-05T13:22:41.765Z,102055.59
2018-12-05T13:32:06.479Z,102047.14
2018-12-05T13:34:33.938Z,102048.83
2018-12-05T13:37:02.349Z,102049.21
2018-12-05T13:39:29.756Z,102041.05
2018-12-05T13:41:57.179Z,102032.44
2018-12-05T13:44:24.582Z,102032.00
2018-12-05T13:46:52.062Z,102025.54
2018-12-05T13:49:19.486Z,102018.64
2018-12-05T13:51:46.938Z,102014.75
2018-12-05T13:54:14.342Z,102001.36
2018-12-05T13:56:41.755Z,101997.48
2018-12-05T13:59:09.212Z,101993.17
2018-12-05T14:01:36.605Z,101993.16
2018-12-05T14:04:04.042Z,101989.33
2018-12-05T14:06:31.471Z,101985.11
2018-12-05T14:08:58.910Z,101988.20
2018-12-05T14:11:26.329Z,101989.08
2018-12-05T14:13:53.761Z,101993.91
2018-12-05T14:16:21.181Z,101995.21
2018-12-05T14:18:48.599Z,101993.48
2018-12-05T14:21:16.117Z,101987.05
2018-12-05T14:23:43.567Z,101982.30
2018-12-05T14:26:11.019Z,101965.47
2018-12-05T14:28:38.420Z,101967.14
2018-12-05T14:31:05.845Z,101966.28
2018-12-05T14:33:33.267Z,101962.45
2018-12-05T14:36:00.794Z,101952.58
2018-12-05T14:38:28.210Z,101956.09
2018-12-05T14:40:55.663Z,101948.78
2018-12-05T14:43:23.156Z,101944.53
2018-12-05T14:45:50.563Z,101950.58
2018-12-05T14:48:17.990Z,101954.45
2018-12-05T14:50:45.397Z,101950.16
2018-12-05T14:53:12.854Z,101952.75
2018-12-05T14:55:40.258Z,101960.98
2018-12-05T14:58:07.669Z,101953.66
2018-12-05T15:00:35.194Z,101953.23
2018-12-05T15:03:04.302Z,101951.08
2018-12-05T15:05:31.927Z,101948.08
2018-12-05T15:07:59.353Z,101939.47
2018-12-05T15:10:26.769Z,101933.01
2018-12-05T15:12:54.178Z,101936.50
2018-12-05T15:15:21.622Z,101938.22
2018-12-05T15:17:49.058Z,101935.22
2018-12-05T15:20:16.487Z,101929.66
2018-12-05T15:22:43.913Z,101934.39
2018-12-05T15:25:11.353Z,101935.68
2018-12-05T15:27:38.856Z,101932.23
2018-12-05T15:30:06.431Z,101923.63
2018-12-05T15:32:33.911Z,101919.36
2018-12-05T15:35:01.338Z,101921.94
2018-12-05T15:37:28.848Z,101915.89
2018-12-05T15:39:56.270Z,101911.16
2018-12-05T15:42:23.669Z,101912.45
2018-12-05T15:44:51.108Z,101912.48
2018-12-05T15:47:18.544Z,101906.89
2018-12-05T15:49:45.949Z,101906.46
2018-12-05T15:52:13.395Z,101902.19
2018-12-05T15:54:41.225Z,101900.03
2018-12-05T15:57:10.065Z,101901.30
2018-12-05T15:59:37.829Z,101893.56
2018-12-05T16:02:05.286Z,101891.84
2018-12-05T16:04:32.717Z,101883.67
2018-12-05T16:07:00.238Z,101879.80
2018-12-05T16:09:27.682Z,101879.77
2018-12-05T16:11:55.114Z,101864.70
2018-12-05T16:14:22.570Z,101856.97
2018-12-05T16:16:49.973Z,101850.55
2018-12-05T16:19:17.408Z,101852.70
2018-12-05T16:21:44.842Z,101845.40
2018-12-05T16:24:12.264Z,101837.66
2018-12-05T16:26:39.682Z,101836.75
2018-12-05T16:29:07.131Z,101826.90
2018-12-05T16:31:34.561Z,101822.56
2018-12-05T16:34:01.981Z,101815.24
2018-12-05T16:36:29.458Z,101808.80
2018-12-05T16:38:56.867Z,101812.23
2018-12-05T16:41:24.380Z,101814.43
2018-12-05T16:43:51.793Z,101803.69
2018-12-05T16:46:19.218Z,101795.52
2018-12-05T16:48:46.616Z,101795.03
2018-12-05T16:51:14.057Z,101782.61
2018-12-05T16:53:41.466Z,101775.25
2018-12-05T16:56:08.878Z,101782.13
2018-12-05T16:58:36.365Z,101775.68
2018-12-05T17:01:03.797Z,101782.11
2018-12-05T17:03:31.235Z,101780.38
2018-12-05T17:05:58.675Z,101764.03
2018-12-05T17:08:26.090Z,101768.78
2018-12-05T17:10:53.499Z,101766.13
2018-12-05T17:13:20.913Z,101766.63
2018-12-05T17:15:48.328Z,101758.89
2018-12-05T17:18:15.794Z,101752.84
2018-12-05T17:20:43.199Z,101751.48
2018-12-05T17:23:10.639Z,101745.04
2018-12-05T17:25:38.053Z,101746.75
2018-12-05T17:28:05.465Z,101744.58
2018-12-05T17:30:32.990Z,101745.02
2018-12-05T17:33:00.419Z,101736.83
2018-12-05T17:35:27.892Z,101737.71
2018-12-05T17:37:55.368Z,101736.86
2018-12-05T17:40:22.838Z,101727.41
2018-12-05T17:42:50.239Z,101727.39
2018-12-05T17:45:17.660Z,101726.08
2018-12-05T17:47:45.079Z,101726.11
2018-12-05T17:50:13.493Z,101713.20
2018-12-05T17:52:41.631Z,101707.15
2018-12-05T17:55:09.273Z,101708.88
2018-12-05T17:57:36.709Z,101705.91
2018-12-05T18:00:04.862Z,101702.53
2018-12-05T18:02:32.275Z,101699.52
2018-12-05T18:04:59.714Z,101701.69
2018-12-05T18:07:27.135Z,101695.23
2018-12-05T18:09:54.562Z,101695.56
2018-12-05T18:12:21.987Z,101685.25
2018-12-05T18:14:49.401Z,101680.53
2018-12-05T18:17:16.822Z,101674.89
2018-12-05T18:19:44.233Z,101677.05
2018-12-05T18:22:11.673Z,101669.71
2018-12-05T18:24:39.084Z,101671.01
2018-12-05T18:27:06.660Z,101671.43
2018-12-05T18:29:34.073Z,101673.41
2018-12-05T18:32:01.471Z,101659.69
2018-12-05T18:34:29.025Z,101658.83
2018-12-05T18:36:57.495Z,101652.80
2018-12-05T18:39:24.990Z,101649.41
2018-12-05T18:41:52.406Z,101653.81
2018-12-05T18:44:19.821Z,101648.65
2018-12-05T18:46:47.278Z,101644.73
2018-12-05T18:49:14.709Z,101641.20
2018-12-05T18:51:42.104Z,101636.48
2018-12-05T18:54:09.782Z,101634.34
2018-12-05T18:56:37.227Z,101631.81
2018-12-05T18:59:04.636Z,101633.88
2018-12-05T19:01:32.066Z,101628.30
2018-12-05T19:03:59.474Z,101627.95
2018-12-05T19:06:26.908Z,101622.27
2018-12-05T19:08:54.330Z,101622.77
2018-12-05T19:11:21.801Z,101616.94
2018-12-05T19:16:54.513Z,101610.09
2018-12-05T19:19:21.901Z,101601.48
2018-12-05T19:21:49.319Z,101601.05
2018-12-05T19:24:16.723Z,101590.64
2018-12-05T19:26:44.121Z,101593.70
2018-12-05T19:29:11.523Z,101580.83
2018-12-05T19:31:38.932Z,101578.64
2018-12-05T19:34:06.375Z,101572.13
2018-12-05T19:36:33.832Z,101564.54
2018-12-05T19:39:01.244Z,101559.72
2018-12-05T19:41:28.723Z,101555.52
2018-12-05T19:43:56.129Z,101550.77
2018-12-05T19:46:23.656Z,101554.12
2018-12-05T19:48:51.050Z,101546.86
2018-12-05T19:51:18.440Z,101544.67
2018-12-05T19:53:45.867Z,101536.63
2018-12-05T19:56:13.259Z,101541.81
2018-12-05T19:58:40.653Z,101532.31
2018-12-05T20:01:08.057Z,101536.59
2018-12-05T20:03:35.461Z,101528.42
2018-12-05T20:06:02.889Z,101526.65
2018-12-05T20:08:30.287Z,101526.67
2018-12-05T20:10:57.699Z,101528.02
2018-12-05T20:13:25.137Z,101524.16
2018-12-05T20:15:52.525Z,101522.41
2018-12-05T20:18:19.922Z,101521.50
2018-12-05T20:20:47.315Z,101514.22
2018-12-05T20:23:14.738Z,101515.90
2018-12-05T20:25:42.135Z,101508.15
2018-12-05T20:28:09.562Z,101503.04
2018-12-05T20:30:36.988Z,101497.90
2018-12-05T20:33:04.417Z,101490.94
2018-12-05T20:35:31.818Z,101488.39
2018-12-05T20:37:59.206Z,101485.80
2018-12-05T20:40:26.989Z,101487.48
2018-12-05T20:42:54.568Z,101479.32
2018-12-05T20:45:22.217Z,101476.17
2018-12-05T20:47:49.675Z,101475.28
2018-12-05T20:50:17.195Z,101476.52
2018-12-05T20:52:44.878Z,101464.16
2018-12-05T20:55:12.464Z,101467.19
2018-12-05T20:57:40.131Z,101463.73
2018-12-05T21:00:07.707Z,101460.28
2018-12-05T21:02:35.239Z,101458.52
2018-12-05T21:05:02.668Z,101452.31
2018-12-05T21:07:30.079Z,101446.36
2018-12-05T21:09:57.541Z,101450.12
2018-12-05T21:12:24.931Z,101453.98
2018-12-05T21:14:52.330Z,101446.36
2018-12-05T21:17:19.726Z,101440.84
2018-12-05T21:19:47.129Z,101439.46
2018-12-05T21:22:14.521Z,101434.58
2018-12-05T21:24:41.934Z,101428.96
2018-12-05T21:27:09.361Z,101426.86
2018-12-05T21:29:36.762Z,101424.21
2018-12-05T21:32:04.206Z,101421.56
2018-12-05T21:34:31.611Z,101421.00
2018-12-05T21:36:59.016Z,101426.55
2018-12-05T21:39:26.409Z,101427.44
2018-12-05T21:41:54.330Z,101419.63
2018-12-05T21:44:21.761Z,101426.93
2018-12-05T21:46:49.250Z,101420.55
2018-12-05T21:49:16.641Z,101427.14
2018-12-05T21:51:44.050Z,101423.20
2018-12-05T21:54:11.453Z,101422.63
2018-12-05T21:56:38.874Z,101414.67
2018-12-05T21:59:06.354Z,101414.55
2018-12-05T22:01:33.775Z,101417.28
2018-12-05T22:04:01.182Z,101417.75
2018-12-05T22:06:28.611Z,101418.57
2018-12-05T22:08:56.019Z,101418.99
2018-12-05T22:11:23.430Z,101422.73
2018-12-05T22:13:50.850Z,101417.52
2018-12-05T22:16:18.245Z,101422.70
2018-12-05T22:18:45.667Z,101410.70
2018-12-05T22:21:13.178Z,101410.68
2018-12-05T22:23:41.557Z,101413.19
2018-12-05T22:26:08.976Z,101408.98
2018-12-05T22:28:36.366Z,101401.50
2018-12-05T22:31:03.803Z,101403.70
2018-12-05T22:33:31.226Z,101398.91
2018-12-05T22:35:58.646Z,101396.37
2018-12-05T22:38:26.070Z,101395.95
2018-12-05T22:40:53.473Z,101385.66
2018-12-05T22:43:20.871Z,101379.98
2018-12-05T22:45:48.269Z,101375.23
2018-12-05T22:48:15.665Z,101373.96
2018-12-05T22:50:43.081Z,101373.48
2018-12-05T22:53:10.531Z,101368.49
2018-12-05T22:55:37.941Z,101360.30
2018-12-05T22:58:05.329Z,101364.61
2018-12-05T23:00:32.768Z,101358.57
2018-12-05T23:03:01.055Z,101360.34
2018-12-05T23:05:28.497Z,101353.12
2018-12-05T23:07:55.990Z,101354.87
2018-12-05T23:10:24.155Z,101349.20
2018-12-05T23:12:51.549Z,101340.48
2018-12-05T23:15:18.965Z,101335.75
2018-12-05T23:17:46.366Z,101328.53
2018-12-05T23:20:13.762Z,101323.23
2018-12-05T23:22:41.165Z,101308.36
2018-12-05T23:25:08.622Z,101307.84
2018-12-05T23:27:36.046Z,101294.34
2018-12-05T23:30:03.806Z,101296.09
2018-12-05T23:32:31.250Z,101287.06
2018-12-05T23:34:58.645Z,101275.85
2018-12-05T23:37:26.056Z,101270.25
2018-12-05T23:39:53.456Z,101264.70
2018-12-05T23:42:20.859Z,101264.29
2018-12-05T23:44:48.285Z,101261.39
2018-12-05T23:47:15.694Z,101256.59
2018-12-05T23:49:43.097Z,101251.03
2018-12-05T23:52:10.517Z,101245.01
2018-12-05T23:54:37.917Z,101244.20
2018-12-05T23:57:05.324Z,101228.67
2018-12-05T23:59:32.730Z,101228.70
